sensor_id;sensor_type;location;lat;lon;timestamp;pressure;altitude;pressure_sealevel;temperature;humidity
46023;BME280;31756;47.936;16.224;2023-02-23T00:00:26;98437.06;;;4.39;100.00
46023;BME280;31756;47.936;16.224;2023-02-23T00:02:55;98430.28;;;4.32;100.00
46023;BME280;31756;47.936;16.224;2023-02-23T00:05:23;98433.66;;;4.26;100.00
46023;BME280;31756;47.936;16.224;2023-02-23T00:07:49;98427.72;;;4.24;100.00
46023;BME280;31756;47.936;16.224;2023-02-23T00:10:16;98431.09;;;4.23;100.00
46023;BME280;31756;47.936;16.224;2023-02-23T00:12:43;98426.84;;;4.21;100.00
46023;BME280;31756;47.936;16.224;2023-02-23T00:15:09;98425.16;;;4.18;100.00
46023;BME280;31756;47.936;16.224;2023-02-23T00:17:35;98421.78;;;4.18;100.00
46023;BME280;31756;47.936;16.224;2023-02-23T00:20:04;98423.47;;;4.17;100.00
46023;BME280;31756;47.936;16.224;2023-02-23T00:22:37;98424.31;;;4.14;100.00
46023;BME280;31756;47.936;16.224;2023-02-23T00:25:05;98426.84;;;4.16;100.00
46023;BME280;31756;47.936;16.224;2023-02-23T00:27:33;98425.97;;;4.12;100.00
46023;BME280;31756;47.936;16.224;2023-02-23T00:29:59;98416.66;;;4.08;100.00
46023;BME280;31756;47.936;16.224;2023-02-23T00:32:25;98420.91;;;4.08;100.00
46023;BME280;31756;47.936;16.224;2023-02-23T00:34:50;98421.75;;;4.05;100.00
46023;BME280;31756;47.936;16.224;2023-02-23T00:37:17;98418.34;;;4.05;100.00
46023;BME280;31756;47.936;16.224;2023-02-23T00:39:43;98422.56;;;4.07;100.00
46023;BME280;31756;47.936;16.224;2023-02-23T00:42:08;98420.88;;;4.03;100.00
46023;BME280;31756;47.936;16.224;2023-02-23T00:44:34;98421.72;;;4.01;100.00
46023;BME280;31756;47.936;16.224;2023-02-23T00:47:04;98418.34;;;4.05;100.00
46023;BME280;31756;47.936;16.224;2023-02-23T00:49:30;98421.72;;;4.04;100.00
46023;BME280;31756;47.936;16.224;2023-02-23T00:51:56;98413.25;;;3.99;100.00
46023;BME280;31756;47.936;16.224;2023-02-23T00:54:21;98409.91;;;3.98;100.00
46023;BME280;31756;47.936;16.224;2023-02-23T00:56:47;98412.41;;;3.97;100.00
46023;BME280;31756;47.936;16.224;2023-02-23T00:59:14;98417.50;;;4.00;100.00
46023;BME280;31756;47.936;16.224;2023-02-23T01:01:40;98416.69;;;4.07;100.00
46023;BME280;31756;47.936;16.224;2023-02-23T01:04:06;98420.06;;;4.03;100.00
46023;BME280;31756;47.936;16.224;2023-02-23T01:06:32;98415.78;;;3.99;100.00
46023;BME280;31756;47.936;16.224;2023-02-23T01:08:58;98407.31;;;3.95;100.00
46023;BME280;31756;47.936;16.224;2023-02-23T01:11:29;98411.59;;;3.98;100.00
46023;BME280;31756;47.936;16.224;2023-02-23T01:13:58;98409.84;;;3.95;100.00
46023;BME280;31756;47.936;16.224;2023-02-23T01:16:31;98408.19;;;3.93;100.00
46023;BME280;31756;47.936;16.224;2023-02-23T01:18:58;98399.69;;;3.88;100.00
46023;BME280;31756;47.936;16.224;2023-02-23T01:21:25;98407.28;;;3.86;100.00
46023;BME280;31756;47.936;16.224;2023-02-23T01:23:51;98406.44;;;3.84;100.00
46023;BME280;31756;47.936;16.224;2023-02-23T01:26:21;98406.47;;;3.86;100.00
46023;BME280;31756;47.936;16.224;2023-02-23T01:28:51;98405.59;;;3.82;100.00
46023;BME280;31756;47.936;16.224;2023-02-23T01:31:17;98403.91;;;3.80;100.00
46023;BME280;31756;47.936;16.224;2023-02-23T01:33:42;98408.13;;;3.78;100.00
46023;BME280;31756;47.936;16.224;2023-02-23T01:36:07;98402.19;;;3.76;100.00
46023;BME280;31756;47.936;16.224;2023-02-23T01:38:33;98402.22;;;3.82;100.00
46023;BME280;31756;47.936;16.224;2023-02-23T01:40:59;98409.81;;;3.79;100.00
46023;BME280;31756;47.936;16.224;2023-02-23T01:43:25;98397.16;;;3.83;100.00
46023;BME280;31756;47.936;16.224;2023-02-23T01:45:54;98401.38;;;3.84;100.00
46023;BME280;31756;47.936;16.224;2023-02-23T01:48:32;98404.75;;;3.77;100.00
46023;BME280;31756;47.936;16.224;2023-02-23T01:53:29;98397.06;;;3.65;100.00
46023;BME280;31756;47.936;16.224;2023-02-23T01:56:00;98396.19;;;3.61;100.00
46023;BME280;31756;47.936;16.224;2023-02-23T01:58:27;98391.97;;;3.62;100.00
46023;BME280;31756;47.936;16.224;2023-02-23T02:00:55;98391.13;;;3.58;100.00
46023;BME280;31756;47.936;16.224;2023-02-23T02:03:25;98390.28;;;3.55;100.00
46023;BME280;31756;47.936;16.224;2023-02-23T02:05:52;98389.38;;;3.45;100.00
46023;BME280;31756;47.936;16.224;2023-02-23T02:08:22;98383.44;;;3.39;100.00
46023;BME280;31756;47.936;16.224;2023-02-23T02:10:50;98380.03;;;3.40;100.00
46023;BME280;31756;47.936;16.224;2023-02-23T02:13:21;98384.22;;;3.32;100.00
46023;BME280;31756;47.936;16.224;2023-02-23T02:15:57;98383.38;;;3.27;100.00
46023;BME280;31756;47.936;16.224;2023-02-23T02:21:34;98383.34;;;3.23;100.00
46023;BME280;31756;47.936;16.224;2023-02-23T02:43:14;98384.94;;;3.09;100.00
46023;BME280;31756;47.936;16.224;2023-02-23T02:48:36;98385.75;;;3.07;100.00
46023;BME280;31756;47.936;16.224;2023-02-23T02:51:08;98388.34;;;3.14;100.00
46023;BME280;31756;47.936;16.224;2023-02-23T02:53:49;98391.72;;;3.15;100.00
46023;BME280;31756;47.936;16.224;2023-02-23T02:56:21;98393.41;;;3.14;100.00
46023;BME280;31756;47.936;16.224;2023-02-23T02:58:48;98401.00;;;3.13;100.00
46023;BME280;31756;47.936;16.224;2023-02-23T03:01:16;98395.97;;;3.17;100.00
46023;BME280;31756;47.936;16.224;2023-02-23T03:04:17;98398.50;;;3.17;100.00
46023;BME280;31756;47.936;16.224;2023-02-23T03:07:08;98396.78;;;3.12;100.00
46023;BME280;31756;47.936;16.224;2023-02-23T03:10:02;98394.19;;;3.06;100.00
46023;BME280;31756;47.936;16.224;2023-02-23T03:13:06;98395.84;;;3.02;100.00
46023;BME280;31756;47.936;16.224;2023-02-23T03:24:31;98401.75;;;2.98;100.00
46023;BME280;31756;47.936;16.224;2023-02-23T03:32:55;98407.72;;;3.08;100.00
46023;BME280;31756;47.936;16.224;2023-02-23T03:36:45;98400.94;;;3.07;100.00
46023;BME280;31756;47.936;16.224;2023-02-23T03:39:00;98409.41;;;3.04;100.00
46023;BME280;31756;47.936;16.224;2023-02-23T03:41:49;98403.50;;;3.10;100.00
46023;BME280;31756;47.936;16.224;2023-02-23T03:44:39;98410.28;;;3.12;100.00
46023;BME280;31756;47.936;16.224;2023-02-23T03:47:24;98418.72;;;3.08;100.00
46023;BME280;31756;47.936;16.224;2023-02-23T03:50:34;98416.97;;;3.06;100.00
46023;BME280;31756;47.936;16.224;2023-02-23T03:53:17;98418.66;;;3.04;100.00
46023;BME280;31756;47.936;16.224;2023-02-23T03:56:04;98422.06;;;3.04;100.00
46023;BME280;31756;47.936;16.224;2023-02-23T03:58:50;98416.94;;;3.01;100.00
46023;BME280;31756;47.936;16.224;2023-02-23T04:01:37;98424.53;;;2.97;100.00
46023;BME280;31756;47.936;16.224;2023-02-23T04:04:21;98422.81;;;2.93;100.00
46023;BME280;31756;47.936;16.224;2023-02-23T04:07:07;98424.50;;;2.94;100.00
46023;BME280;31756;47.936;16.224;2023-02-23T04:09:52;98429.53;;;2.88;100.00
46023;BME280;31756;47.936;16.224;2023-02-23T04:15:30;98427.75;;;2.81;100.00
46023;BME280;31756;47.936;16.224;2023-02-23T04:17:56;98431.97;;;2.80;100.00
46023;BME280;31756;47.936;16.224;2023-02-23T04:20:22;98431.16;;;2.80;100.00
46023;BME280;31756;47.936;16.224;2023-02-23T04:22:49;98431.94;;;2.77;100.00
46023;BME280;31756;47.936;16.224;2023-02-23T04:25:14;98424.34;;;2.77;100.00
46023;BME280;31756;47.936;16.224;2023-02-23T04:27:40;98430.34;;;2.84;100.00
46023;BME280;31756;47.936;16.224;2023-02-23T04:30:06;98431.28;;;2.96;100.00
46023;BME280;31756;47.936;16.224;2023-02-23T04:32:31;98432.94;;;2.93;100.00
46023;BME280;31756;47.936;16.224;2023-02-23T04:34:57;98427.03;;;2.92;100.00
46023;BME280;31756;47.936;16.224;2023-02-23T04:37:22;98433.78;;;2.92;100.00
46023;BME280;31756;47.936;16.224;2023-02-23T04:39:48;98438.88;;;2.96;100.00
46023;BME280;31756;47.936;16.224;2023-02-23T04:42:17;98445.66;;;3.02;100.00
46023;BME280;31756;47.936;16.224;2023-02-23T04:44:43;98443.94;;;2.98;100.00
46023;BME280;31756;47.936;16.224;2023-02-23T04:47:08;98442.22;;;2.95;100.00
46023;BME280;31756;47.936;16.224;2023-02-23T04:49:34;98448.13;;;2.93;100.00
46023;BME280;31756;47.936;16.224;2023-02-23T04:52:00;98444.75;;;2.92;100.00
46023;BME280;31756;47.936;16.224;2023-02-23T04:54:25;98444.75;;;2.92;100.00
46023;BME280;31756;47.936;16.224;2023-02-23T04:56:51;98428.66;;;2.87;100.00
46023;BME280;31756;47.936;16.224;2023-02-23T04:59:17;98438.84;;;2.92;100.00
46023;BME280;31756;47.936;16.224;2023-02-23T05:01:42;98441.38;;;2.95;100.00
46023;BME280;31756;47.936;16.224;2023-02-23T05:04:08;98443.09;;;2.96;100.00
46023;BME280;31756;47.936;16.224;2023-02-23T05:06:34;98443.09;;;2.96;100.00
46023;BME280;31756;47.936;16.224;2023-02-23T05:08:59;98442.22;;;2.95;100.00
46023;BME280;31756;47.936;16.224;2023-02-23T05:11:25;98437.19;;;3.01;100.00
46023;BME280;31756;47.936;16.224;2023-02-23T05:13:51;98442.31;;;3.04;100.00
46023;BME280;31756;47.936;16.224;2023-02-23T05:16:18;98438.13;;;3.11;100.00
46023;BME280;31756;47.936;16.224;2023-02-23T05:18:44;98444.88;;;3.10;100.00
46023;BME280;31756;47.936;16.224;2023-02-23T05:21:09;98442.31;;;3.07;100.00
46023;BME280;31756;47.936;16.224;2023-02-23T05:23:35;98438.97;;;3.11;100.00
46023;BME280;31756;47.936;16.224;2023-02-23T05:26:02;98439.84;;;3.15;100.00
46023;BME280;31756;47.936;16.224;2023-02-23T05:28:28;98440.69;;;3.14;100.00
46023;BME280;31756;47.936;16.224;2023-02-23T05:30:54;98449.13;;;3.14;100.00
46023;BME280;31756;47.936;16.224;2023-02-23T05:33:19;98447.47;;;3.19;100.00
46023;BME280;31756;47.936;16.224;2023-02-23T05:35:47;98443.31;;;3.28;100.00
46023;BME280;31756;47.936;16.224;2023-02-23T05:38:14;98445.88;;;3.29;100.00
46023;BME280;31756;47.936;16.224;2023-02-23T05:40:40;98447.56;;;3.32;100.00
46023;BME280;31756;47.936;16.224;2023-02-23T05:43:06;98439.16;;;3.34;100.00
46023;BME280;31756;47.936;16.224;2023-02-23T05:45:31;98450.16;;;3.42;100.00
46023;BME280;31756;47.936;16.224;2023-02-23T05:47:57;98449.31;;;3.45;100.00
46023;BME280;31756;47.936;16.224;2023-02-23T05:50:23;98451.03;;;3.49;100.00
46023;BME280;31756;47.936;16.224;2023-02-23T05:52:51;98458.69;;;3.53;100.00
46023;BME280;31756;47.936;16.224;2023-02-23T05:55:16;98461.22;;;3.53;100.00
46023;BME280;31756;47.936;16.224;2023-02-23T05:57:42;98459.56;;;3.58;100.00
46023;BME280;31756;47.936;16.224;2023-02-23T06:00:08;98460.44;;;3.60;100.00
46023;BME280;31756;47.936;16.224;2023-02-23T06:02:34;98464.59;;;3.57;100.00
46023;BME280;31756;47.936;16.224;2023-02-23T06:05:00;98468.00;;;3.59;100.00
46023;BME280;31756;47.936;16.224;2023-02-23T06:07:26;98473.09;;;3.62;100.00
46023;BME280;31756;47.936;16.224;2023-02-23T06:09:51;98473.91;;;3.58;100.00
46023;BME280;31756;47.936;16.224;2023-02-23T06:12:17;98478.16;;;3.62;100.00
46023;BME280;31756;47.936;16.224;2023-02-23T06:14:42;98473.97;;;3.67;100.00
46023;BME280;31756;47.936;16.224;2023-02-23T06:17:08;98484.13;;;3.70;100.00
46023;BME280;31756;47.936;16.224;2023-02-23T06:19:33;98475.72;;;3.77;100.00
46023;BME280;31756;47.936;16.224;2023-02-23T06:21:59;98483.38;;;3.82;100.00
46023;BME280;31756;47.936;16.224;2023-02-23T06:24:25;98485.06;;;3.87;100.00
46023;BME280;31756;47.936;16.224;2023-02-23T06:26:50;98485.09;;;3.90;100.00
46023;BME280;31756;47.936;16.224;2023-02-23T06:29:16;98487.63;;;3.95;100.00
46023;BME280;31756;47.936;16.224;2023-02-23T06:31:41;98491.03;;;4.00;100.00
46023;BME280;31756;47.936;16.224;2023-02-23T06:34:07;98485.97;;;3.97;100.00
46023;BME280;31756;47.936;16.224;2023-02-23T06:36:32;98482.56;;;3.95;100.00
46023;BME280;31756;47.936;16.224;2023-02-23T06:38:58;98485.94;;;3.95;100.00
46023;BME280;31756;47.936;16.224;2023-02-23T06:41:24;98491.88;;;3.97;100.00
46023;BME280;31756;47.936;16.224;2023-02-23T06:43:50;98496.16;;;4.03;100.00
46023;BME280;31756;47.936;16.224;2023-02-23T06:46:16;98493.63;;;4.03;100.00
46023;BME280;31756;47.936;16.224;2023-02-23T06:48:41;98491.03;;;4.00;100.00
46023;BME280;31756;47.936;16.224;2023-02-23T06:51:07;98506.31;;;4.09;100.00
46023;BME280;31756;47.936;16.224;2023-02-23T06:53:32;98502.94;;;4.16;100.00
46023;BME280;31756;47.936;16.224;2023-02-23T06:55:58;98505.56;;;4.28;100.00
46023;BME280;31756;47.936;16.224;2023-02-23T06:58:24;98501.34;;;4.39;100.00
46023;BME280;31756;47.936;16.224;2023-02-23T07:00:49;98501.41;;;4.53;100.00
46023;BME280;31756;47.936;16.224;2023-02-23T07:03:15;98500.56;;;4.65;100.00
46023;BME280;31756;47.936;16.224;2023-02-23T07:05:40;98503.97;;;4.67;100.00
46023;BME280;31756;47.936;16.224;2023-02-23T07:08:06;98501.47;;;4.82;100.00
46023;BME280;31756;47.936;16.224;2023-02-23T07:10:32;98504.84;;;4.90;100.00
46023;BME280;31756;47.936;16.224;2023-02-23T07:12:57;98504.84;;;4.81;100.00
46023;BME280;31756;47.936;16.224;2023-02-23T07:15:23;98502.34;;;4.96;100.00
46023;BME280;31756;47.936;16.224;2023-02-23T07:17:49;98514.19;;;4.88;100.00
46023;BME280;31756;47.936;16.224;2023-02-23T07:20:16;98506.53;;;4.77;100.00
46023;BME280;31756;47.936;16.224;2023-02-23T07:22:42;98507.38;;;4.84;100.00
46023;BME280;31756;47.936;16.224;2023-02-23T07:25:08;98513.31;;;4.78;100.00
46023;BME280;31756;47.936;16.224;2023-02-23T07:27:33;98505.66;;;4.72;100.00
46023;BME280;31756;47.936;16.224;2023-02-23T07:29:59;98515.00;;;4.78;100.00
46023;BME280;31756;47.936;16.224;2023-02-23T07:32:28;98514.19;;;4.88;100.00
46023;BME280;31756;47.936;16.224;2023-02-23T07:34:54;98515.03;;;5.08;100.00
46023;BME280;31756;47.936;16.224;2023-02-23T07:37:19;98514.19;;;5.15;100.00
46023;BME280;31756;47.936;16.224;2023-02-23T07:39:45;98511.66;;;5.21;100.00
46023;BME280;31756;47.936;16.224;2023-02-23T07:42:11;98518.44;;;5.31;100.00
46023;BME280;31756;47.936;16.224;2023-02-23T07:44:37;98512.47;;;5.52;100.00
46023;BME280;31756;47.936;16.224;2023-02-23T07:47:04;98509.94;;;5.52;100.00
46023;BME280;31756;47.936;16.224;2023-02-23T07:49:29;98515.03;;;5.58;100.00
46023;BME280;31756;47.936;16.224;2023-02-23T07:51:55;98516.75;;;5.41;100.00
46023;BME280;31756;47.936;16.224;2023-02-23T07:54:21;98512.50;;;5.25;100.00
46023;BME280;31756;47.936;16.224;2023-02-23T07:56:46;98514.19;;;5.39;100.00
46023;BME280;31756;47.936;16.224;2023-02-23T07:59:12;98518.44;;;5.56;100.00
46023;BME280;31756;47.936;16.224;2023-02-23T08:01:38;98509.94;;;5.61;100.00
46023;BME280;31756;47.936;16.224;2023-02-23T08:04:04;98513.31;;;5.65;100.00
46023;BME280;31756;47.936;16.224;2023-02-23T08:06:29;98521.78;;;5.70;100.00
46023;BME280;31756;47.936;16.224;2023-02-23T08:08:57;98521.81;;;5.88;100.00
46023;BME280;31756;47.936;16.224;2023-02-23T08:11:22;98516.69;;;6.00;100.00
46023;BME280;31756;47.936;16.224;2023-02-23T08:13:48;98513.19;;;6.25;100.00
46023;BME280;31756;47.936;16.224;2023-02-23T08:16:13;98511.41;;;6.47;100.00
46023;BME280;31756;47.936;16.224;2023-02-23T08:18:40;98513.91;;;6.59;100.00
46023;BME280;31756;47.936;16.224;2023-02-23T08:21:06;98515.63;;;6.54;100.00
46023;BME280;31756;47.936;16.224;2023-02-23T08:23:32;98516.41;;;6.65;100.00
46023;BME280;31756;47.936;16.224;2023-02-23T08:25:58;98523.13;;;6.80;100.00
46023;BME280;31756;47.936;16.224;2023-02-23T08:28:24;98518.88;;;6.80;100.00
46023;BME280;31756;47.936;16.224;2023-02-23T08:30:50;98524.81;;;6.81;100.00
46023;BME280;31756;47.936;16.224;2023-02-23T08:33:16;98520.69;;;6.62;100.00
46023;BME280;31756;47.936;16.224;2023-02-23T08:35:41;98519.00;;;6.59;100.00
46023;BME280;31756;47.936;16.224;2023-02-23T08:38:07;98515.63;;;6.54;100.00
46023;BME280;31756;47.936;16.224;2023-02-23T08:40:32;98520.72;;;6.51;100.00
46023;BME280;31756;47.936;16.224;2023-02-23T08:42:58;98527.44;;;6.63;100.00
46023;BME280;31756;47.936;16.224;2023-02-23T08:45:23;98522.44;;;6.49;100.00
46023;BME280;31756;47.936;16.224;2023-02-23T08:47:49;98524.09;;;6.55;100.00
46023;BME280;31756;47.936;16.224;2023-02-23T08:50:14;98529.19;;;6.59;100.00
46023;BME280;31756;47.936;16.224;2023-02-23T08:52:40;98525.09;;;6.26;100.00
46023;BME280;31756;47.936;16.224;2023-02-23T08:55:06;98523.28;;;6.50;100.00
46023;BME280;31756;47.936;16.224;2023-02-23T08:57:32;98526.59;;;6.62;100.00
46023;BME280;31756;47.936;16.224;2023-02-23T08:59:58;98523.25;;;6.62;100.00
46023;BME280;31756;47.936;16.224;2023-02-23T09:02:24;98524.84;;;6.75;100.00
46023;BME280;31756;47.936;16.224;2023-02-23T09:04:49;98523.00;;;7.04;100.00
46023;BME280;31756;47.936;16.224;2023-02-23T09:07:19;98524.47;;;7.32;100.00
46023;BME280;31756;47.936;16.224;2023-02-23T09:09:54;98519.03;;;7.72;100.00
46023;BME280;31756;47.936;16.224;2023-02-23T09:12:20;98525.09;;;7.57;100.00
46023;BME280;31756;47.936;16.224;2023-02-23T09:14:45;98525.91;;;7.62;100.00
46023;BME280;31756;47.936;16.224;2023-02-23T09:17:11;98536.34;;;8.25;100.00
46023;BME280;31756;47.936;16.224;2023-02-23T09:19:37;98528.59;;;8.34;100.00
46023;BME280;31756;47.936;16.224;2023-02-23T09:22:02;98529.34;;;8.44;100.00
46023;BME280;31756;47.936;16.224;2023-02-23T09:24:28;98538.00;;;8.29;100.00
46023;BME280;31756;47.936;16.224;2023-02-23T09:26:53;98529.34;;;8.41;100.00
46023;BME280;31756;47.936;16.224;2023-02-23T09:29:19;98529.63;;;8.87;100.00
46023;BME280;31756;47.936;16.224;2023-02-23T09:31:44;98531.25;;;8.92;100.00
46023;BME280;31756;47.936;16.224;2023-02-23T09:34:09;98529.19;;;8.54;100.00
46023;BME280;31756;47.936;16.224;2023-02-23T09:36:36;98528.44;;;7.65;100.00
46023;BME280;31756;47.936;16.224;2023-02-23T09:39:02;98534.91;;;8.00;100.00
46023;BME280;31756;47.936;16.224;2023-02-23T09:44:18;98530.56;;;8.06;100.00
46023;BME280;31756;47.936;16.224;2023-02-23T09:49:31;98524.88;;;8.58;100.00
46023;BME280;31756;47.936;16.224;2023-02-23T09:51:58;98521.00;;;8.95;100.00
46023;BME280;31756;47.936;16.224;2023-02-23T09:54:27;98516.50;;;9.11;100.00
46023;BME280;31756;47.936;16.224;2023-02-23T09:56:53;98524.63;;;9.34;100.00
46023;BME280;31756;47.936;16.224;2023-02-23T09:59:22;98521.28;;;9.32;100.00
46023;BME280;31756;47.936;16.224;2023-02-23T10:01:53;98527.31;;;9.28;100.00
46023;BME280;31756;47.936;16.224;2023-02-23T10:04:28;98530.16;;;9.08;100.00
46023;BME280;31756;47.936;16.224;2023-02-23T10:06:59;98523.56;;;8.95;100.00
46023;BME280;31756;47.936;16.224;2023-02-23T10:09:37;98528.47;;;9.07;100.00
46023;BME280;31756;47.936;16.224;2023-02-23T10:12:06;98520.63;;;9.18;100.00
46023;BME280;31756;47.936;16.224;2023-02-23T10:17:16;98525.75;;;9.18;100.00
46023;BME280;31756;47.936;16.224;2023-02-23T10:19:48;98521.31;;;8.73;100.00
46023;BME280;31756;47.936;16.224;2023-02-23T10:22:15;98521.63;;;8.47;100.00
46023;BME280;31756;47.936;16.224;2023-02-23T10:24:42;98521.25;;;8.77;100.00
46023;BME280;31756;47.936;16.224;2023-02-23T10:27:13;98528.69;;;8.92;100.00
46023;BME280;31756;47.936;16.224;2023-02-23T10:29:41;98521.00;;;8.92;100.00
46023;BME280;31756;47.936;16.224;2023-02-23T10:34:38;98522.00;;;8.84;100.00
46023;BME280;31756;47.936;16.224;2023-02-23T10:37:04;98515.00;;;8.96;100.00
46023;BME280;31756;47.936;16.224;2023-02-23T10:39:31;98512.22;;;9.11;100.00
46023;BME280;31756;47.936;16.224;2023-02-23T10:41:57;98514.38;;;9.36;100.00
46023;BME280;31756;47.936;16.224;2023-02-23T10:44:24;98510.13;;;9.35;100.00
46023;BME280;31756;47.936;16.224;2023-02-23T10:46:57;98502.16;;;9.53;100.00
46023;BME280;31756;47.936;16.224;2023-02-23T10:49:27;98505.19;;;9.75;100.00
46023;BME280;31756;47.936;16.224;2023-02-23T10:51:54;98500.88;;;9.78;100.00
46023;BME280;31756;47.936;16.224;2023-02-23T10:54:42;98494.34;;;10.08;100.00
46023;BME280;31756;47.936;16.224;2023-02-23T10:57:09;98488.81;;;10.29;100.00
46023;BME280;31756;47.936;16.224;2023-02-23T10:59:40;98488.47;;;10.46;100.00
46023;BME280;31756;47.936;16.224;2023-02-23T11:02:21;98488.97;;;10.62;100.00
46023;BME280;31756;47.936;16.224;2023-02-23T11:04:51;98481.63;;;10.46;100.00
46023;BME280;31756;47.936;16.224;2023-02-23T11:07:19;98477.75;;;10.69;100.00
46023;BME280;31756;47.936;16.224;2023-02-23T11:09:45;98472.84;;;10.57;100.00
46023;BME280;31756;47.936;16.224;2023-02-23T11:12:15;98463.31;;;10.63;100.00
46023;BME280;31756;47.936;16.224;2023-02-23T11:14:44;98475.78;;;10.80;100.00
46023;BME280;31756;47.936;16.224;2023-02-23T11:17:22;98468.19;;;10.75;100.00
46023;BME280;31756;47.936;16.224;2023-02-23T11:19:48;98467.03;;;10.88;100.00
46023;BME280;31756;47.936;16.224;2023-02-23T11:22:18;98454.75;;;11.01;100.00
46023;BME280;31756;47.936;16.224;2023-02-23T11:24:47;98462.97;;;10.78;100.00
46023;BME280;31756;47.936;16.224;2023-02-23T11:27:18;98460.38;;;10.81;100.00
46023;BME280;31756;47.936;16.224;2023-02-23T11:29:45;98450.69;;;10.92;100.00
46023;BME280;31756;47.936;16.224;2023-02-23T11:32:16;98453.06;;;11.00;100.00
46023;BME280;31756;47.936;16.224;2023-02-23T11:34:43;98453.72;;;11.08;100.00
46023;BME280;31756;47.936;16.224;2023-02-23T11:40:02;98451.19;;;11.42;100.00
46023;BME280;31756;47.936;16.224;2023-02-23T11:42:31;98447.50;;;11.52;100.00
46023;BME280;31756;47.936;16.224;2023-02-23T11:45:16;98451.44;;;11.65;100.00
46023;BME280;31756;47.936;16.224;2023-02-23T11:47:46;98443.41;;;11.79;100.00
46023;BME280;31756;47.936;16.224;2023-02-23T11:50:45;98440.38;;;11.96;100.00
46023;BME280;31756;47.936;16.224;2023-02-23T11:53:04;98432.75;;;11.93;100.00
46023;BME280;31756;47.936;16.224;2023-02-23T11:55:31;98434.03;;;11.76;100.00
46023;BME280;31756;47.936;16.224;2023-02-23T11:58:07;98429.75;;;11.77;100.00
46023;BME280;31756;47.936;16.224;2023-02-23T12:00:33;98425.25;;;11.85;100.00
46023;BME280;31756;47.936;16.224;2023-02-23T12:02:59;98426.91;;;11.87;100.00
46023;BME280;31756;47.936;16.224;2023-02-23T12:05:28;98424.25;;;11.58;100.00
46023;BME280;31756;47.936;16.224;2023-02-23T12:17:47;98413.72;;;11.35;100.00
46023;BME280;31756;47.936;16.224;2023-02-23T12:20:22;98411.91;;;11.05;100.00
46023;BME280;31756;47.936;16.224;2023-02-23T12:22:50;98407.53;;;11.10;100.00
46023;BME280;31756;47.936;16.224;2023-02-23T12:30:37;98400.31;;;10.90;100.00
46023;BME280;31756;47.936;16.224;2023-02-23T12:33:04;98405.19;;;10.99;100.00
46023;BME280;31756;47.936;16.224;2023-02-23T12:38:25;98392.13;;;11.10;100.00
46023;BME280;31756;47.936;16.224;2023-02-23T12:40:59;98405.63;;;11.16;100.00
46023;BME280;31756;47.936;16.224;2023-02-23T12:46:15;98397.16;;;11.13;100.00
46023;BME280;31756;47.936;16.224;2023-02-23T12:51:19;98382.19;;;11.62;100.00
46023;BME280;31756;47.936;16.224;2023-02-23T12:53:46;98380.31;;;11.67;100.00
46023;BME280;31756;47.936;16.224;2023-02-23T13:01:18;98367.03;;;12.43;100.00
46023;BME280;31756;47.936;16.224;2023-02-23T13:11:22;98359.00;;;12.79;100.00
46023;BME280;31756;47.936;16.224;2023-02-23T13:13:55;98357.72;;;12.11;100.00
46023;BME280;31756;47.936;16.224;2023-02-23T13:16:28;98363.03;;;12.34;100.00
46023;BME280;31756;47.936;16.224;2023-02-23T13:19:10;98358.56;;;12.67;100.00
46023;BME280;31756;47.936;16.224;2023-02-23T13:32:04;98351.03;;;12.87;100.00
46023;BME280;31756;47.936;16.224;2023-02-23T13:34:32;98352.81;;;13.11;100.00
46023;BME280;31756;47.936;16.224;2023-02-23T13:36:58;98349.13;;;12.94;100.00
46023;BME280;31756;47.936;16.224;2023-02-23T13:41:55;98351.25;;;12.81;100.00
46023;BME280;31756;47.936;16.224;2023-02-23T13:44:35;98349.53;;;12.54;100.00
46023;BME280;31756;47.936;16.224;2023-02-23T13:47:07;98353.72;;;12.84;100.00
46023;BME280;31756;47.936;16.224;2023-02-23T13:49:47;98347.09;;;12.77;100.00
46023;BME280;31756;47.936;16.224;2023-02-23T13:52:25;98349.66;;;12.77;100.00
46023;BME280;31756;47.936;16.224;2023-02-23T13:54:54;98346.31;;;12.73;100.00
46023;BME280;31756;47.936;16.224;2023-02-23T13:57:21;98347.03;;;12.78;100.00
46023;BME280;31756;47.936;16.224;2023-02-23T13:59:47;98349.50;;;12.55;100.00
46023;BME280;31756;47.936;16.224;2023-02-23T14:05:05;98340.91;;;12.28;100.00
46023;BME280;31756;47.936;16.224;2023-02-23T14:07:40;98335.22;;;12.47;100.00
46023;BME280;31756;47.936;16.224;2023-02-23T14:10:15;98338.38;;;12.55;100.00
46023;BME280;31756;47.936;16.224;2023-02-23T14:12:47;98337.97;;;12.67;100.00
46023;BME280;31756;47.936;16.224;2023-02-23T14:15:28;98334.00;;;12.57;100.00
46023;BME280;31756;47.936;16.224;2023-02-23T14:20:48;98335.31;;;12.70;100.00
46023;BME280;31756;47.936;16.224;2023-02-23T14:25:49;98333.72;;;12.66;100.00
46023;BME280;31756;47.936;16.224;2023-02-23T14:36:01;98327.97;;;12.58;100.00
46023;BME280;31756;47.936;16.224;2023-02-23T14:38:33;98330.19;;;12.42;100.00
46023;BME280;31756;47.936;16.224;2023-02-23T14:41:02;98322.78;;;12.33;100.00
46023;BME280;31756;47.936;16.224;2023-02-23T14:43:38;98326.91;;;12.39;100.00
46023;BME280;31756;47.936;16.224;2023-02-23T14:46:10;98325.25;;;12.36;100.00
46023;BME280;31756;47.936;16.224;2023-02-23T14:48:36;98325.72;;;12.21;100.00
46023;BME280;31756;47.936;16.224;2023-02-23T14:51:12;98318.78;;;12.23;100.00
46023;BME280;31756;47.936;16.224;2023-02-23T14:53:41;98322.34;;;12.19;100.00
46023;BME280;31756;47.936;16.224;2023-02-23T14:56:16;98322.63;;;12.10;100.00
46023;BME280;31756;47.936;16.224;2023-02-23T14:58:42;98319.00;;;12.17;100.00
46023;BME280;31756;47.936;16.224;2023-02-23T15:01:29;98317.41;;;12.13;100.00